createdAt,value
2023-04-25T00:02:20.526Z,6.70
2023-04-25T00:04:50.329Z,6.63
2023-04-25T00:07:20.764Z,6.63
2023-04-25T00:09:48.772Z,6.68
2023-04-25T00:12:17.220Z,6.59
2023-04-25T00:14:48.451Z,6.62
2023-04-25T00:17:16.392Z,6.56
2023-04-25T00:19:45.690Z,6.59
2023-04-25T00:22:14.659Z,6.56
2023-04-25T00:24:44.003Z,6.38
2023-04-25T00:27:11.889Z,6.31
2023-04-25T00:29:40.876Z,6.25
2023-04-25T00:32:08.818Z,6.17
2023-04-25T00:34:37.440Z,6.22
2023-04-25T00:37:06.260Z,6.20
2023-04-25T00:39:34.230Z,6.27
2023-04-25T00:42:05.801Z,6.22
2023-04-25T00:44:34.108Z,6.25
2023-04-25T00:47:03.967Z,6.16
2023-04-25T00:49:32.874Z,6.18
2023-04-25T00:52:01.258Z,6.25
2023-04-25T00:54:29.415Z,6.22
2023-04-25T00:56:58.448Z,6.22
2023-04-25T00:59:28.302Z,6.14
2023-04-25T01:01:56.752Z,6.27
2023-04-25T01:04:25.799Z,6.21
2023-04-25T01:06:54.004Z,6.25
2023-04-25T01:09:23.413Z,6.29
2023-04-25T01:11:52.084Z,6.34
2023-04-25T01:14:20.148Z,6.28
2023-04-25T01:16:50.261Z,6.27
2023-04-25T01:19:20.203Z,6.21
2023-04-25T01:21:50.850Z,6.29
2023-04-25T01:24:19.359Z,6.22
2023-04-25T01:26:51.181Z,6.28
2023-04-25T01:29:25.851Z,6.28
2023-04-25T01:31:55.561Z,6.20
2023-04-25T01:34:23.652Z,6.07
2023-04-25T01:36:53.741Z,6.10
2023-04-25T01:39:24.380Z,6.14
2023-04-25T01:41:52.587Z,6.06
2023-04-25T01:44:21.169Z,5.97
2023-04-25T01:46:50.462Z,6.04
2023-04-25T01:49:18.489Z,6.04
2023-04-25T01:51:46.946Z,6.06
2023-04-25T01:54:18.715Z,5.96
2023-04-25T01:56:52.513Z,5.99
2023-04-25T01:59:23.468Z,6.07
2023-04-25T02:01:51.479Z,6.18
2023-04-25T02:04:27.816Z,6.10
2023-04-25T02:06:56.578Z,6.06
2023-04-25T02:09:32.606Z,6.11
2023-04-25T02:12:06.047Z,6.07
2023-04-25T02:14:56.486Z,6.25
2023-04-25T02:17:41.159Z,6.27
2023-04-25T02:20:11.560Z,6.17
2023-04-25T02:22:41.271Z,6.20
2023-04-25T02:25:13.137Z,6.29
2023-04-25T02:27:41.166Z,6.32
2023-04-25T02:30:10.557Z,6.22
2023-04-25T02:32:41.137Z,6.20
2023-04-25T02:35:11.319Z,6.16
2023-04-25T02:37:41.545Z,6.17
2023-04-25T02:40:11.996Z,6.11
2023-04-25T02:42:40.461Z,6.11
2023-04-25T02:45:09.938Z,6.17
2023-04-25T02:47:37.919Z,6.25
2023-04-25T02:50:07.177Z,6.28
2023-04-25T02:52:36.985Z,6.29
2023-04-25T02:55:16.596Z,6.20
2023-04-25T02:57:46.325Z,6.20
2023-04-25T03:00:20.844Z,6.14
2023-04-25T03:02:49.916Z,6.13
2023-04-25T03:05:18.572Z,6.06
2023-04-25T03:07:47.317Z,6.06
2023-04-25T03:10:19.555Z,6.11
2023-04-25T03:12:49.883Z,6.10
2023-04-25T03:15:19.655Z,6.06
2023-04-25T03:17:47.701Z,6.09
2023-04-25T03:20:15.677Z,6.11
2023-04-25T03:22:44.736Z,6.10
2023-04-25T03:25:12.672Z,6.00
2023-04-25T03:27:44.395Z,5.99
2023-04-25T03:30:12.568Z,6.01
2023-04-25T03:32:42.729Z,5.97
2023-04-25T03:35:11.655Z,5.96
2023-04-25T03:37:41.478Z,5.93
2023-04-25T03:40:10.682Z,5.99
2023-04-25T03:43:03.655Z,5.94
2023-04-25T03:45:31.570Z,5.99
2023-04-25T03:50:31.656Z,6.07
2023-04-25T03:52:59.631Z,6.10
2023-04-25T03:55:30.523Z,6.09
2023-04-25T03:58:00.863Z,6.06
2023-04-25T04:00:30.677Z,6.04
2023-04-25T04:02:59.427Z,6.06
2023-04-25T04:05:28.878Z,6.13
2023-04-25T04:07:58.266Z,6.06
2023-04-25T04:10:27.701Z,6.09
2023-04-25T04:12:57.485Z,6.04
2023-04-25T04:15:25.949Z,6.06
2023-04-25T04:17:56.948Z,6.07
2023-04-25T04:20:25.129Z,5.99
2023-04-25T04:22:54.015Z,6.00
2023-04-25T04:25:22.525Z,5.96
2023-04-25T04:28:09.385Z,6.01
2023-04-25T04:31:00.208Z,6.00
2023-04-25T04:33:30.998Z,6.07
2023-04-25T04:36:04.173Z,6.14
2023-04-25T04:38:33.460Z,6.00
2023-04-25T04:41:05.238Z,6.06
2023-04-25T04:43:51.870Z,6.07
2023-04-25T04:46:43.582Z,6.18
2023-04-25T04:49:29.665Z,5.97
2023-04-25T04:52:27.939Z,5.94
2023-04-25T04:55:25.082Z,6.10
2023-04-25T04:58:11.653Z,6.03
2023-04-25T05:01:09.059Z,6.20
2023-04-25T05:04:02.352Z,6.07
2023-04-25T05:06:50.765Z,6.20
2023-04-25T05:09:39.741Z,6.18
2023-04-25T05:12:21.160Z,6.20
2023-04-25T05:14:53.286Z,6.17
2023-04-25T05:17:50.565Z,6.13
2023-04-25T05:20:42.650Z,6.34
2023-04-25T05:23:38.172Z,6.28
2023-04-25T05:26:27.367Z,6.22
2023-04-25T05:29:28.110Z,6.37
2023-04-25T05:32:10.044Z,6.50
2023-04-25T05:34:38.277Z,6.55
2023-04-25T05:37:09.033Z,6.55
2023-04-25T05:39:49.557Z,6.57
2023-04-25T05:42:36.328Z,6.56
2023-04-25T05:45:24.588Z,6.75
2023-04-25T05:48:10.074Z,6.70
2023-04-25T05:50:57.084Z,6.81
2023-04-25T05:53:40.300Z,6.83
2023-04-25T05:56:10.858Z,6.79
2023-04-25T05:58:38.900Z,6.66
2023-04-25T06:01:07.128Z,6.73
2023-04-25T06:03:36.269Z,6.77
2023-04-25T06:06:05.001Z,6.93
2023-04-25T06:08:33.865Z,6.94
2023-04-25T06:11:02.321Z,6.89
2023-04-25T06:13:31.741Z,7.08
2023-04-25T06:16:00.512Z,7.18
2023-04-25T06:18:31.295Z,7.41
2023-04-25T06:20:59.719Z,7.45
2023-04-25T06:23:28.093Z,7.43
2023-04-25T06:26:05.845Z,6.98
2023-04-25T06:28:37.898Z,7.03
2023-04-25T06:31:06.696Z,7.03
2023-04-25T06:33:35.163Z,7.34
2023-04-25T06:36:05.623Z,7.48
2023-04-25T06:38:36.264Z,7.62
2023-04-25T06:41:04.484Z,7.42
2023-04-25T06:43:38.260Z,7.46
2023-04-25T06:46:26.282Z,7.43
2023-04-25T06:48:57.136Z,7.26
2023-04-25T06:51:25.504Z,7.11
2023-04-25T06:53:55.760Z,7.36
2023-04-25T06:56:32.415Z,7.65
2023-04-25T06:59:10.308Z,7.73
2023-04-25T07:01:41.679Z,7.88
2023-04-25T07:04:17.538Z,7.39
2023-04-25T07:06:51.782Z,7.31
2023-04-25T07:09:24.946Z,7.41
2023-04-25T07:11:54.377Z,7.51
2023-04-25T07:14:23.684Z,7.56
2023-04-25T07:16:52.297Z,7.90
2023-04-25T07:19:21.513Z,7.93
2023-04-25T07:21:51.831Z,7.91
2023-04-25T07:24:23.587Z,7.77
2023-04-25T07:26:52.690Z,7.71
2023-04-25T07:29:58.859Z,7.77
2023-04-25T07:32:28.078Z,8.24
2023-04-25T07:34:56.499Z,8.33
2023-04-25T07:37:25.593Z,8.39
2023-04-25T07:40:06.239Z,8.67
2023-04-25T07:42:35.136Z,8.71
2023-04-25T07:45:06.360Z,8.71
2023-04-25T07:47:36.267Z,8.80
2023-04-25T07:50:05.076Z,8.70
2023-04-25T07:52:34.022Z,8.50
2023-04-25T07:55:15.977Z,8.70
2023-04-25T07:58:04.381Z,8.61
2023-04-25T08:00:36.201Z,8.97
2023-04-25T08:03:24.135Z,8.67
2023-04-25T08:05:53.788Z,8.84
2023-04-25T08:08:22.366Z,8.73
2023-04-25T08:10:51.092Z,8.84
2023-04-25T08:13:20.102Z,8.85
2023-04-25T08:15:49.720Z,8.83
2023-04-25T08:18:19.000Z,8.89
2023-04-25T08:20:49.813Z,8.92
2023-04-25T08:23:19.441Z,8.89
2023-04-25T08:25:56.598Z,9.01
2023-04-25T08:28:28.742Z,9.42
2023-04-25T08:31:02.137Z,9.32
2023-04-25T08:33:37.242Z,9.04
2023-04-25T08:36:39.053Z,9.04
2023-04-25T08:39:19.785Z,9.29
2023-04-25T08:42:09.937Z,9.32
2023-04-25T08:44:39.866Z,8.61
2023-04-25T08:47:09.669Z,8.53
2023-04-25T08:49:48.488Z,8.70
2023-04-25T08:52:24.313Z,9.14
2023-04-25T08:54:57.545Z,9.23
2023-04-25T08:57:27.142Z,9.12
2023-04-25T08:59:55.267Z,9.18
2023-04-25T09:02:27.423Z,9.14
2023-04-25T09:04:57.169Z,9.23
2023-04-25T09:07:26.763Z,9.70
2023-04-25T09:09:57.118Z,9.30
2023-04-25T09:12:25.172Z,9.22
2023-04-25T09:15:06.951Z,9.50
2023-04-25T09:17:59.087Z,9.53
2023-04-25T09:20:37.675Z,9.50
2023-04-25T09:23:08.711Z,9.26
2023-04-25T09:25:41.223Z,9.26
2023-04-25T09:28:11.563Z,9.84
2023-04-25T09:30:40.833Z,9.94
2023-04-25T09:33:17.883Z,10.95
2023-04-25T09:35:53.996Z,10.33
2023-04-25T09:38:32.982Z,9.95
2023-04-25T09:41:12.955Z,9.87
2023-04-25T09:43:48.371Z,9.82
2023-04-25T09:46:18.490Z,9.64
2023-04-25T09:48:55.268Z,9.51
2023-04-25T09:51:37.713Z,9.28
2023-04-25T09:54:09.039Z,9.02
2023-04-25T09:56:45.631Z,8.83
2023-04-25T09:59:15.284Z,8.64
2023-04-25T10:01:45.564Z,8.77
2023-04-25T10:04:29.415Z,8.56
2023-04-25T10:07:05.776Z,8.64
2023-04-25T10:09:36.596Z,8.57
2023-04-25T10:12:07.519Z,8.40
2023-04-25T10:14:36.140Z,8.39
2023-04-25T10:17:04.377Z,8.25
2023-04-25T10:19:35.030Z,8.15
2023-04-25T10:22:10.144Z,8.09
2023-04-25T10:24:42.294Z,7.94
2023-04-25T10:27:11.941Z,7.83
2023-04-25T10:29:40.022Z,7.87
2023-04-25T10:32:08.138Z,8.14
2023-04-25T10:34:43.618Z,8.29
2023-04-25T10:37:12.663Z,8.33
2023-04-25T10:39:42.439Z,8.15
2023-04-25T10:42:11.558Z,8.56
2023-04-25T10:44:41.010Z,8.92
2023-04-25T10:47:10.649Z,9.26
2023-04-25T10:49:44.763Z,9.43
2023-04-25T10:52:14.337Z,9.42
2023-04-25T10:54:46.489Z,9.54
2023-04-25T10:57:36.268Z,9.58
2023-04-25T11:00:20.169Z,9.69
2023-04-25T11:02:53.387Z,10.19
2023-04-25T11:05:33.169Z,10.99
2023-04-25T11:08:08.315Z,10.64
2023-04-25T11:10:39.104Z,9.82
2023-04-25T11:13:08.170Z,9.64
2023-04-25T11:15:37.875Z,9.61
2023-04-25T11:18:10.699Z,9.82
2023-04-25T11:20:41.081Z,9.42
2023-04-25T11:23:10.814Z,9.43
2023-04-25T11:25:41.027Z,9.53
2023-04-25T11:28:11.032Z,9.88
2023-04-25T11:30:40.112Z,10.05
2023-04-25T11:33:08.731Z,10.26
2023-04-25T11:35:37.338Z,10.33
2023-04-25T11:38:08.689Z,10.20
2023-04-25T11:40:38.236Z,9.99
2023-04-25T11:43:07.472Z,9.55
2023-04-25T11:45:36.849Z,9.19
2023-04-25T11:48:07.651Z,8.88
2023-04-25T11:50:36.895Z,9.04
2023-04-25T11:53:05.112Z,8.61
2023-04-25T11:55:35.351Z,8.40
2023-04-25T11:58:05.101Z,7.98
2023-04-25T12:00:33.952Z,8.02
2023-04-25T12:03:03.957Z,7.41
2023-04-25T12:05:35.700Z,7.32
2023-04-25T12:08:14.570Z,7.46
2023-04-25T12:10:47.905Z,7.58
2023-04-25T12:13:23.784Z,7.97
2023-04-25T12:15:53.339Z,8.24
2023-04-25T12:18:22.974Z,8.75
2023-04-25T12:20:51.479Z,9.04
2023-04-25T12:23:19.861Z,9.26
2023-04-25T12:25:49.298Z,9.42
2023-04-25T12:28:21.267Z,9.67
2023-04-25T12:30:57.123Z,9.80
2023-04-25T12:33:26.288Z,10.12
2023-04-25T12:35:54.928Z,9.87
2023-04-25T12:38:24.620Z,10.10
2023-04-25T12:40:55.254Z,10.22
2023-04-25T12:43:23.817Z,10.26
2023-04-25T12:45:52.612Z,11.03
2023-04-25T12:48:22.380Z,12.51
2023-04-25T12:50:51.664Z,13.61
2023-04-25T12:53:21.471Z,13.68
2023-04-25T12:55:50.039Z,15.21
2023-04-25T12:58:21.772Z,15.47
2023-04-25T13:00:50.471Z,15.70
2023-04-25T13:03:19.112Z,15.17
2023-04-25T13:05:48.279Z,15.37
2023-04-25T13:08:16.391Z,13.66
2023-04-25T13:10:44.880Z,11.85
2023-04-25T13:13:13.304Z,11.44
2023-04-25T13:15:42.700Z,11.24
2023-04-25T13:18:11.180Z,10.75
2023-04-25T13:20:39.620Z,10.30
2023-04-25T13:23:07.567Z,10.28
2023-04-25T13:25:35.617Z,8.92
2023-04-25T13:28:04.689Z,7.53
2023-04-25T13:30:32.681Z,7.00
2023-04-25T13:33:04.878Z,6.84
2023-04-25T13:35:33.400Z,6.45
2023-04-25T13:38:01.790Z,6.10
2023-04-25T13:40:30.791Z,6.44
2023-04-25T13:42:58.872Z,6.84
2023-04-25T13:45:28.238Z,7.49
2023-04-25T13:47:56.668Z,8.42
2023-04-25T13:50:26.237Z,9.36
2023-04-25T13:52:54.454Z,11.26
2023-04-25T13:55:22.992Z,15.28
2023-04-25T13:57:50.980Z,16.66
2023-04-25T14:00:19.712Z,17.34
2023-04-25T14:02:50.848Z,15.93
2023-04-25T14:05:19.095Z,15.48
2023-04-25T14:07:48.401Z,16.11
2023-04-25T14:10:17.117Z,15.40
2023-04-25T14:12:45.048Z,16.96
2023-04-25T14:15:13.476Z,16.45
2023-04-25T14:17:41.819Z,15.16
2023-04-25T14:20:11.993Z,14.93
2023-04-25T14:22:44.536Z,12.71
2023-04-25T14:25:13.892Z,11.41
2023-04-25T14:27:41.812Z,11.82
2023-04-25T14:30:13.264Z,12.05
2023-04-25T14:32:41.347Z,13.31
2023-04-25T14:35:10.267Z,11.81
2023-04-25T14:37:39.314Z,11.24
2023-04-25T14:40:09.796Z,11.11
2023-04-25T14:42:40.539Z,11.20
2023-04-25T14:45:10.494Z,11.18
2023-04-25T14:47:38.481Z,10.86
2023-04-25T14:50:08.542Z,12.71
2023-04-25T14:52:36.511Z,11.64
2023-04-25T14:55:06.452Z,10.98
2023-04-25T14:57:34.873Z,10.17
2023-04-25T15:00:06.791Z,10.75
2023-04-25T15:02:36.324Z,11.19
2023-04-25T15:05:05.471Z,11.22
2023-04-25T15:07:35.594Z,11.09
2023-04-25T15:10:04.149Z,11.26
2023-04-25T15:12:32.566Z,11.41
2023-04-25T15:15:00.970Z,11.34
2023-04-25T15:17:32.410Z,12.37
2023-04-25T15:20:00.774Z,10.74
2023-04-25T15:22:28.970Z,9.95
2023-04-25T15:24:58.351Z,9.09
2023-04-25T15:27:28.043Z,9.08
2023-04-25T15:29:58.832Z,9.01
2023-04-25T15:32:26.955Z,10.37
2023-04-25T15:34:56.905Z,12.19
2023-04-25T15:37:25.660Z,11.71
2023-04-25T15:40:04.812Z,11.75
2023-04-25T15:42:33.792Z,11.15
2023-04-25T15:45:01.776Z,10.58
2023-04-25T15:47:30.244Z,10.39
2023-04-25T15:50:00.060Z,10.64
2023-04-25T15:52:28.358Z,9.97
2023-04-25T15:54:56.451Z,9.35
2023-04-25T15:57:25.651Z,9.18
2023-04-25T15:59:53.646Z,9.05
2023-04-25T16:02:22.402Z,9.58
2023-04-25T16:04:51.111Z,9.99
2023-04-25T16:07:20.580Z,10.05
2023-04-25T16:09:49.043Z,9.74
2023-04-25T16:12:20.125Z,9.51
2023-04-25T16:14:48.248Z,9.15
2023-04-25T16:17:16.211Z,8.88
2023-04-25T16:19:45.171Z,8.70
2023-04-25T16:22:16.100Z,8.80
2023-04-25T16:24:46.768Z,9.08
2023-04-25T16:27:14.835Z,8.84
2023-04-25T16:29:43.391Z,8.20
2023-04-25T16:32:11.812Z,7.71
2023-04-25T16:34:39.866Z,7.49
2023-04-25T16:37:08.264Z,7.17
2023-04-25T16:39:36.602Z,7.19
2023-04-25T16:42:06.055Z,6.79
2023-04-25T16:44:34.809Z,6.49
2023-04-25T16:47:02.760Z,5.96
2023-04-25T16:49:31.577Z,5.82
2023-04-25T16:52:00.271Z,5.89
2023-04-25T16:54:28.746Z,5.92
2023-04-25T16:56:56.755Z,5.92
2023-04-25T16:59:26.901Z,5.94
2023-04-25T17:01:54.886Z,6.11
2023-04-25T17:04:23.447Z,6.96
2023-04-25T17:06:52.054Z,7.58
2023-04-25T17:09:20.014Z,7.67
2023-04-25T17:11:47.968Z,7.95
2023-04-25T17:14:16.809Z,7.90
2023-04-25T17:16:46.147Z,7.69
2023-04-25T17:19:14.639Z,7.45
2023-04-25T17:21:43.713Z,7.53
2023-04-25T17:24:12.248Z,7.36
2023-04-25T17:26:40.408Z,7.38
2023-04-25T17:29:09.889Z,7.49
2023-04-25T17:31:38.003Z,7.67
2023-04-25T17:34:09.798Z,7.86
2023-04-25T17:36:37.816Z,7.90
2023-04-25T17:39:06.463Z,7.84
2023-04-25T17:41:35.373Z,7.97
2023-04-25T17:44:03.295Z,7.91
2023-04-25T17:46:31.824Z,7.87
2023-04-25T17:49:00.273Z,7.58
2023-04-25T17:51:29.724Z,7.42
2023-04-25T17:53:58.161Z,7.14
2023-04-25T17:56:27.908Z,7.05
2023-04-25T17:58:56.346Z,7.04
2023-04-25T18:01:24.826Z,6.87
2023-04-25T18:03:53.817Z,6.81
2023-04-25T18:06:21.869Z,6.77
2023-04-25T18:08:52.856Z,6.77
2023-04-25T18:11:22.459Z,6.69
2023-04-25T18:13:50.402Z,6.65
2023-04-25T18:16:18.971Z,6.76
2023-04-25T18:18:53.708Z,6.72
2023-04-25T18:21:22.180Z,6.65
2023-04-25T18:23:51.527Z,6.72
2023-04-25T18:26:22.905Z,6.69
2023-04-25T18:28:51.043Z,6.70
2023-04-25T18:31:24.548Z,6.77
2023-04-25T18:33:52.786Z,6.77
2023-04-25T18:36:20.912Z,6.84
2023-04-25T18:38:53.212Z,6.90
2023-04-25T18:41:50.953Z,6.89
2023-04-25T18:44:14.001Z,6.83
2023-04-25T18:46:43.678Z,6.79
2023-04-25T18:49:12.283Z,6.77
2023-04-25T18:51:42.061Z,6.81
2023-04-25T18:54:12.001Z,6.79
2023-04-25T18:56:42.409Z,6.83
2023-04-25T18:59:11.158Z,6.80
2023-04-25T19:01:39.142Z,6.84
2023-04-25T19:04:08.252Z,6.69
2023-04-25T19:06:36.816Z,6.70
2023-04-25T19:09:05.432Z,6.68
2023-04-25T19:11:33.909Z,6.57
2023-04-25T19:14:03.315Z,6.53
2023-04-25T19:16:39.223Z,6.53
2023-04-25T19:19:08.767Z,6.48
2023-04-25T19:21:37.452Z,6.37
2023-04-25T19:24:07.407Z,6.28
2023-04-25T19:26:35.561Z,6.25
2023-04-25T19:29:10.287Z,6.20
2023-04-25T19:31:39.618Z,6.13
2023-04-25T19:34:09.281Z,6.03
2023-04-25T19:36:39.972Z,5.94
2023-04-25T19:39:09.005Z,6.01
2023-04-25T19:41:38.161Z,5.97
2023-04-25T19:44:10.744Z,6.16
2023-04-25T19:46:39.485Z,6.16
2023-04-25T19:49:08.185Z,6.22
2023-04-25T19:51:38.247Z,6.29
2023-04-25T19:54:06.502Z,6.31
2023-04-25T19:56:35.000Z,6.24
2023-04-25T19:59:03.407Z,6.32
2023-04-25T20:01:32.862Z,6.22
2023-04-25T20:04:01.646Z,6.27
2023-04-25T20:06:30.904Z,6.17
2023-04-25T20:08:59.490Z,6.22
2023-04-25T20:11:29.250Z,6.17
2023-04-25T20:13:58.034Z,6.11
2023-04-25T20:16:27.623Z,6.17
2023-04-25T20:18:57.633Z,6.22
2023-04-25T20:21:26.312Z,6.17
2023-04-25T20:23:54.373Z,6.17
2023-04-25T20:26:23.052Z,6.10
2023-04-25T20:28:51.763Z,6.11
2023-04-25T20:31:20.866Z,6.01
2023-04-25T20:33:49.070Z,5.92
2023-04-25T20:36:19.781Z,5.83
2023-04-25T20:38:48.012Z,5.76
2023-04-25T20:41:16.072Z,5.77
2023-04-25T20:43:44.064Z,5.73
2023-04-25T20:46:12.669Z,5.59
2023-04-25T20:48:40.993Z,5.49
2023-04-25T20:51:09.579Z,5.58
2023-04-25T20:53:38.919Z,5.54
2023-04-25T20:56:08.430Z,5.47
2023-04-25T20:58:36.294Z,5.47
2023-04-25T21:01:06.427Z,5.41
2023-04-25T21:03:36.079Z,5.49
2023-04-25T21:06:04.248Z,5.38
2023-04-25T21:08:32.156Z,5.45
2023-04-25T21:11:02.707Z,5.41
2023-04-25T21:13:30.410Z,5.28
2023-04-25T21:15:58.968Z,5.34
2023-04-25T21:18:27.751Z,5.28
2023-04-25T21:20:55.720Z,5.30
2023-04-25T21:23:23.648Z,5.31
2023-04-25T21:25:54.465Z,5.21
2023-04-25T21:28:23.802Z,5.32
2023-04-25T21:30:53.233Z,5.26
2023-04-25T21:33:21.736Z,5.16
2023-04-25T21:35:49.857Z,5.09
2023-04-25T21:38:17.760Z,5.03
2023-04-25T21:40:46.873Z,5.03
2023-04-25T21:43:14.872Z,5.04
2023-04-25T21:46:11.086Z,4.93
2023-04-25T21:48:34.140Z,4.82
2023-04-25T21:51:02.030Z,4.68
2023-04-25T21:53:31.538Z,4.73
2023-04-25T21:55:59.880Z,4.67
2023-04-25T21:58:29.950Z,4.61
2023-04-25T22:01:01.048Z,4.64
2023-04-25T22:03:29.166Z,4.57
2023-04-25T22:05:57.904Z,4.57
2023-04-25T22:08:26.064Z,4.45
2023-04-25T22:10:55.115Z,4.61
2023-04-25T22:13:23.681Z,4.58
2023-04-25T22:15:53.045Z,4.54
2023-04-25T22:18:22.597Z,4.50
2023-04-25T22:20:50.782Z,4.41
2023-04-25T22:23:19.415Z,4.36
2023-04-25T22:25:47.431Z,4.40
2023-04-25T22:28:15.409Z,4.36
2023-04-25T22:30:43.941Z,4.32
2023-04-25T22:33:12.398Z,4.33
2023-04-25T22:35:42.236Z,4.26
2023-04-25T22:38:11.126Z,4.40
2023-04-25T22:40:39.059Z,4.40
2023-04-25T22:43:07.537Z,4.40
2023-04-25T22:45:36.248Z,4.40
2023-04-25T22:48:04.899Z,4.36
2023-04-25T22:50:33.516Z,4.40
2023-04-25T22:53:04.103Z,4.38
2023-04-25T22:55:33.046Z,4.36
2023-04-25T22:58:01.241Z,4.27
2023-04-25T23:00:30.852Z,4.27
2023-04-25T23:02:59.262Z,4.37
2023-04-25T23:05:28.441Z,4.38
2023-04-25T23:07:57.635Z,4.38
2023-04-25T23:10:28.922Z,4.29
2023-04-25T23:13:00.771Z,4.23
2023-04-25T23:15:31.120Z,4.30
2023-04-25T23:17:59.454Z,4.21
2023-04-25T23:20:28.089Z,4.20
2023-04-25T23:22:56.070Z,4.20
2023-04-25T23:25:26.660Z,4.14
2023-04-25T23:27:54.588Z,4.11
2023-04-25T23:30:23.156Z,4.11
2023-04-25T23:32:51.813Z,4.07
2023-04-25T23:35:19.981Z,4.03
2023-04-25T23:37:49.331Z,4.06
2023-04-25T23:40:17.303Z,3.99
2023-04-25T23:42:46.672Z,3.93
2023-04-25T23:45:16.950Z,3.89
2023-04-25T23:47:45.557Z,3.93
2023-04-25T23:50:13.928Z,3.92
2023-04-25T23:52:42.478Z,3.89
2023-04-25T23:55:11.577Z,3.82
2023-04-25T23:57:39.515Z,3.86
